createdAt,value
2022-12-18T00:00:02.334Z,3.00
2022-12-18T00:02:29.790Z,2.80
2022-12-18T00:04:57.121Z,3.00
2022-12-18T00:07:24.298Z,2.93
2022-12-18T00:09:51.443Z,3.27
2022-12-18T00:14:50.795Z,3.33
2022-12-18T00:17:18.015Z,3.80
2022-12-18T00:19:45.161Z,4.23
2022-12-18T00:22:12.421Z,5.23
2022-12-18T00:24:39.628Z,5.27
2022-12-18T00:27:06.836Z,5.10
2022-12-18T00:29:34.056Z,5.13
2022-12-18T00:32:01.287Z,4.80
2022-12-18T00:34:28.768Z,4.47
2022-12-18T00:36:55.919Z,3.47
2022-12-18T00:39:23.268Z,3.47
2022-12-18T00:41:50.469Z,3.63
2022-12-18T00:44:19.657Z,3.37
2022-12-18T00:46:48.733Z,3.63
2022-12-18T00:49:19.345Z,3.43
2022-12-18T00:51:47.614Z,4.00
2022-12-18T00:54:15.138Z,3.30
2022-12-18T00:56:50.112Z,3.63
2022-12-18T00:59:20.755Z,3.60
2022-12-18T01:01:48.711Z,3.60
2022-12-18T01:04:16.356Z,4.00
2022-12-18T01:06:43.513Z,3.97
2022-12-18T01:09:12.072Z,3.67
2022-12-18T01:11:39.262Z,4.00
2022-12-18T01:14:06.502Z,3.60
2022-12-18T01:16:33.748Z,3.73
2022-12-18T01:19:00.926Z,4.17
2022-12-18T01:21:28.661Z,3.67
2022-12-18T01:23:57.853Z,3.53
2022-12-18T01:26:26.683Z,3.30
2022-12-18T01:28:56.632Z,3.57
2022-12-18T01:31:31.304Z,3.13
2022-12-18T01:34:01.034Z,3.20
2022-12-18T01:36:35.449Z,2.90
2022-12-18T01:39:14.943Z,3.60
2022-12-18T01:41:43.174Z,3.10
2022-12-18T01:45:03.736Z,3.43
2022-12-18T01:47:50.553Z,3.47
2022-12-18T01:50:25.851Z,3.20
2022-12-18T01:53:20.058Z,3.63
2022-12-18T01:55:55.461Z,3.93
2022-12-18T01:58:42.430Z,3.80
2022-12-18T02:01:10.172Z,3.20
2022-12-18T02:03:38.205Z,3.33
2022-12-18T02:06:21.381Z,3.27
2022-12-18T02:09:09.759Z,3.10
2022-12-18T02:12:26.361Z,3.40
2022-12-18T02:15:04.081Z,3.67
2022-12-18T02:17:44.035Z,4.23
2022-12-18T02:20:29.052Z,3.57
2022-12-18T02:23:32.808Z,3.73
2022-12-18T02:26:15.433Z,3.63
2022-12-18T02:28:58.316Z,3.73
2022-12-18T02:31:32.512Z,2.93
2022-12-18T02:34:05.253Z,3.13
2022-12-18T02:36:37.294Z,3.27
2022-12-18T02:39:08.956Z,3.93
2022-12-18T02:41:37.531Z,3.67
2022-12-18T02:44:14.302Z,3.30
2022-12-18T02:46:50.114Z,2.83
2022-12-18T02:49:36.920Z,3.60
2022-12-18T02:52:29.419Z,3.80
2022-12-18T02:55:15.592Z,3.00
2022-12-18T02:57:56.337Z,3.50
2022-12-18T03:00:31.042Z,2.97
2022-12-18T03:03:42.928Z,3.07
2022-12-18T03:06:30.316Z,3.10
2022-12-18T03:09:10.306Z,3.10
2022-12-18T03:11:46.132Z,3.00
2022-12-18T03:14:18.009Z,2.90
2022-12-18T03:16:49.400Z,3.10
2022-12-18T03:19:22.304Z,3.60
2022-12-18T03:21:55.320Z,4.03
2022-12-18T03:24:25.921Z,5.20
2022-12-18T03:27:02.011Z,3.90
2022-12-18T03:29:43.640Z,4.17
2022-12-18T03:32:28.125Z,5.23
2022-12-18T03:35:01.509Z,3.83
2022-12-18T03:37:32.455Z,3.87
2022-12-18T03:39:59.891Z,3.33
2022-12-18T03:42:49.903Z,3.60
2022-12-18T03:45:43.592Z,3.60
2022-12-18T03:48:36.468Z,3.70
2022-12-18T03:51:18.680Z,4.03
2022-12-18T03:54:10.108Z,3.53
2022-12-18T03:56:48.041Z,3.30
2022-12-18T03:59:18.439Z,3.60
2022-12-18T04:01:51.601Z,4.13
2022-12-18T04:04:21.119Z,4.17
2022-12-18T04:07:01.932Z,3.40
2022-12-18T04:09:32.971Z,3.07
2022-12-18T04:12:00.161Z,3.00
2022-12-18T04:14:27.340Z,3.10
2022-12-18T04:16:54.564Z,2.90
2022-12-18T04:19:21.723Z,3.47
2022-12-18T04:21:48.851Z,3.53
2022-12-18T04:24:16.067Z,3.40
2022-12-18T04:26:43.172Z,3.10
2022-12-18T04:29:10.398Z,4.80
2022-12-18T04:32:01.721Z,7.93
2022-12-18T04:34:29.821Z,5.07
2022-12-18T04:36:59.018Z,3.63
2022-12-18T04:39:26.820Z,3.63
2022-12-18T04:41:54.023Z,3.43
2022-12-18T04:44:37.020Z,3.10
2022-12-18T04:47:09.653Z,3.30
2022-12-18T04:49:36.849Z,3.07
2022-12-18T04:52:04.147Z,3.20
2022-12-18T04:54:31.315Z,3.27
2022-12-18T04:56:58.498Z,3.13
2022-12-18T04:59:25.710Z,3.10
2022-12-18T05:01:52.951Z,3.10
2022-12-18T05:04:20.296Z,3.50
2022-12-18T05:06:47.499Z,3.87
2022-12-18T05:09:15.563Z,4.70
2022-12-18T05:11:42.722Z,4.37
2022-12-18T05:14:09.933Z,5.40
2022-12-18T05:16:37.080Z,4.77
2022-12-18T05:19:04.225Z,6.23
2022-12-18T05:21:31.373Z,9.57
2022-12-18T05:23:58.593Z,8.83
2022-12-18T05:26:25.748Z,6.40
2022-12-18T05:28:52.910Z,6.93
2022-12-18T05:31:20.131Z,10.20
2022-12-18T05:33:47.368Z,13.33
2022-12-18T05:36:14.602Z,8.73
2022-12-18T05:38:42.631Z,10.10
2022-12-18T05:41:10.670Z,23.57
2022-12-18T05:43:40.758Z,17.00
2022-12-18T05:46:13.859Z,20.00
2022-12-18T05:48:42.457Z,29.43
2022-12-18T05:51:14.042Z,19.07
2022-12-18T05:53:42.545Z,11.63
2022-12-18T05:56:17.661Z,21.23
2022-12-18T05:58:45.920Z,20.60
2022-12-18T06:01:20.265Z,35.57
2022-12-18T06:03:48.037Z,17.60
2022-12-18T06:06:27.870Z,17.83
2022-12-18T06:08:56.696Z,9.70
2022-12-18T06:11:27.423Z,16.10
2022-12-18T06:13:58.971Z,19.33
2022-12-18T06:16:29.822Z,11.07
2022-12-18T06:19:00.352Z,10.67
2022-12-18T06:21:29.645Z,8.30
2022-12-18T06:23:57.495Z,10.50
2022-12-18T06:26:28.264Z,8.80
2022-12-18T06:28:56.039Z,9.17
2022-12-18T06:31:23.419Z,12.83
2022-12-18T06:33:50.810Z,18.80
2022-12-18T06:36:18.373Z,17.93
2022-12-18T06:38:45.847Z,14.47
2022-12-18T06:41:21.075Z,11.80
2022-12-18T06:43:48.725Z,12.87
2022-12-18T06:46:16.061Z,20.90
2022-12-18T06:48:43.561Z,25.47
2022-12-18T06:51:11.638Z,25.37
2022-12-18T06:53:39.030Z,14.13
2022-12-18T06:56:10.635Z,11.63
2022-12-18T06:58:39.468Z,9.77
2022-12-18T07:01:10.860Z,9.17
2022-12-18T07:03:40.602Z,46.47
2022-12-18T07:06:17.843Z,19.20
2022-12-18T07:08:46.800Z,13.13
2022-12-18T07:11:15.193Z,12.37
2022-12-18T07:13:42.991Z,10.13
2022-12-18T07:16:19.650Z,12.00
2022-12-18T07:18:49.756Z,17.90
2022-12-18T07:21:21.778Z,18.30
2022-12-18T07:23:49.462Z,32.60
2022-12-18T07:26:20.924Z,18.60
2022-12-18T07:28:49.325Z,11.40
2022-12-18T07:31:21.532Z,13.83
2022-12-18T07:33:51.211Z,15.40
2022-12-18T07:36:19.368Z,20.93
2022-12-18T07:38:50.169Z,15.37
2022-12-18T07:41:18.095Z,11.17
2022-12-18T07:43:45.735Z,16.53
2022-12-18T07:46:15.005Z,14.57
2022-12-18T07:48:45.550Z,14.00
2022-12-18T07:51:18.622Z,17.77
2022-12-18T07:53:46.041Z,14.40
2022-12-18T07:56:30.840Z,40.40
2022-12-18T07:59:00.481Z,14.23
2022-12-18T08:01:28.356Z,13.07
2022-12-18T08:03:55.832Z,15.80
2022-12-18T08:06:24.073Z,14.73
2022-12-18T08:08:56.870Z,28.37
2022-12-18T08:11:27.526Z,20.50
2022-12-18T08:13:55.353Z,13.57
2022-12-18T08:16:23.367Z,12.47
2022-12-18T08:18:53.540Z,13.10
2022-12-18T08:21:30.785Z,10.40
2022-12-18T08:24:01.368Z,7.17
2022-12-18T08:26:32.134Z,11.10
2022-12-18T08:29:01.506Z,10.83
2022-12-18T08:31:30.955Z,10.57
2022-12-18T08:33:58.633Z,10.30
2022-12-18T08:36:26.384Z,7.57
2022-12-18T08:38:54.683Z,7.80
2022-12-18T08:41:22.582Z,6.30
2022-12-18T08:43:50.325Z,6.43
2022-12-18T08:46:19.055Z,5.90
2022-12-18T08:48:46.605Z,6.30
2022-12-18T08:51:14.290Z,6.60
2022-12-18T08:53:41.952Z,7.30
2022-12-18T08:56:09.783Z,17.53
2022-12-18T08:58:37.390Z,31.00
2022-12-18T09:01:10.165Z,17.80
2022-12-18T09:03:38.873Z,10.43
2022-12-18T09:06:09.434Z,13.53
2022-12-18T09:08:41.175Z,18.47
2022-12-18T09:11:20.619Z,15.07
2022-12-18T09:13:48.158Z,12.13
2022-12-18T09:16:17.621Z,9.10
2022-12-18T09:18:45.251Z,9.10
2022-12-18T09:21:16.632Z,7.90
2022-12-18T09:23:44.817Z,7.43
2022-12-18T09:26:12.131Z,8.73
2022-12-18T09:28:39.669Z,6.47
2022-12-18T09:31:09.536Z,6.67
2022-12-18T09:33:37.282Z,6.60
2022-12-18T09:36:08.096Z,5.43
2022-12-18T09:38:36.341Z,6.30
2022-12-18T09:41:43.579Z,6.23
2022-12-18T09:44:28.631Z,8.07
2022-12-18T09:47:27.228Z,7.13
2022-12-18T09:50:01.486Z,5.80
2022-12-18T09:52:40.960Z,5.30
2022-12-18T09:55:37.490Z,5.97
2022-12-18T09:58:39.469Z,4.67
2022-12-18T10:01:23.095Z,4.60
2022-12-18T10:03:51.653Z,6.77
2022-12-18T10:06:28.350Z,9.00
2022-12-18T10:09:25.677Z,9.93
2022-12-18T10:12:38.713Z,6.93
2022-12-18T10:15:41.075Z,5.47
2022-12-18T10:18:49.982Z,6.20
2022-12-18T10:22:19.505Z,10.60
2022-12-18T10:25:02.932Z,7.37
2022-12-18T10:27:31.600Z,6.07
2022-12-18T10:30:02.306Z,6.10
2022-12-18T10:32:32.010Z,7.53
2022-12-18T10:35:00.708Z,8.40
2022-12-18T10:37:30.775Z,5.20
2022-12-18T10:40:22.192Z,3.67
2022-12-18T10:43:13.731Z,3.03
2022-12-18T10:45:42.351Z,3.13
2022-12-18T10:48:23.318Z,2.90
2022-12-18T10:53:43.573Z,3.10
2022-12-18T10:56:11.509Z,3.23
2022-12-18T10:58:40.921Z,2.90
2022-12-18T11:01:14.554Z,3.00
2022-12-18T11:03:50.743Z,3.47
2022-12-18T11:06:24.828Z,3.37
2022-12-18T11:09:29.176Z,2.43
2022-12-18T11:12:06.835Z,2.30
2022-12-18T11:14:57.510Z,2.23
2022-12-18T11:17:35.793Z,2.37
2022-12-18T11:20:19.479Z,2.13
2022-12-18T11:23:04.947Z,2.50
2022-12-18T11:25:35.768Z,2.27
2022-12-18T11:28:45.702Z,2.20
2022-12-18T11:31:29.343Z,2.13
2022-12-18T11:34:29.804Z,2.33
2022-12-18T11:37:02.007Z,2.53
2022-12-18T11:39:51.079Z,1.90
2022-12-18T11:42:39.053Z,1.70
2022-12-18T11:45:12.804Z,1.80
2022-12-18T11:48:01.537Z,1.70
2022-12-18T11:50:37.798Z,1.40
2022-12-18T11:53:06.379Z,1.80
2022-12-18T11:55:51.972Z,1.50
2022-12-18T11:58:31.597Z,1.60
2022-12-18T12:01:46.831Z,1.73
2022-12-18T12:04:44.439Z,1.70
2022-12-18T12:07:37.407Z,1.87
2022-12-18T12:10:43.507Z,1.90
2022-12-18T12:14:08.102Z,2.00
2022-12-18T12:17:16.715Z,1.90
2022-12-18T12:20:03.442Z,1.77
2022-12-18T12:22:51.707Z,1.47
2022-12-18T12:25:52.126Z,1.97
2022-12-18T12:29:10.866Z,2.07
2022-12-18T12:32:03.758Z,2.00
2022-12-18T12:34:54.820Z,2.13
2022-12-18T12:37:58.710Z,2.50
2022-12-18T12:43:28.317Z,5.03
2022-12-18T12:46:08.074Z,6.70
2022-12-18T12:48:49.181Z,3.53
2022-12-18T12:51:41.788Z,12.33
2022-12-18T12:54:24.252Z,8.17
2022-12-18T12:57:17.100Z,9.57
2022-12-18T13:00:13.973Z,7.80
2022-12-18T13:03:18.355Z,5.37
2022-12-18T13:06:45.125Z,8.10
2022-12-18T13:09:13.771Z,6.87
2022-12-18T13:11:48.698Z,5.80
2022-12-18T13:14:42.227Z,6.73
2022-12-18T13:17:35.676Z,14.43
2022-12-18T13:20:13.713Z,17.87
2022-12-18T13:22:48.122Z,16.97
2022-12-18T13:25:35.989Z,12.97
2022-12-18T13:28:34.971Z,12.50
2022-12-18T13:31:04.075Z,10.90
2022-12-18T13:33:51.047Z,11.07
2022-12-18T13:36:31.890Z,17.07
2022-12-18T13:39:35.938Z,17.33
2022-12-18T13:42:07.044Z,17.80
2022-12-18T13:44:41.423Z,16.23
2022-12-18T13:47:33.872Z,14.17
2022-12-18T13:50:03.380Z,12.63
2022-12-18T13:52:40.312Z,11.30
2022-12-18T13:55:19.807Z,11.37
2022-12-18T13:57:47.681Z,11.67
2022-12-18T14:00:31.326Z,11.93
2022-12-18T14:03:00.535Z,13.67
2022-12-18T14:05:29.334Z,9.67
2022-12-18T14:08:02.365Z,9.07
2022-12-18T14:10:49.061Z,14.07
2022-12-18T14:13:31.312Z,14.00
2022-12-18T14:16:04.151Z,25.90
2022-12-18T14:18:57.137Z,26.97
2022-12-18T14:21:34.619Z,20.33
2022-12-18T14:24:19.605Z,16.77
2022-12-18T14:26:51.963Z,14.97
2022-12-18T14:29:26.344Z,20.27
2022-12-18T14:32:18.143Z,18.00
2022-12-18T14:34:53.106Z,16.50
2022-12-18T14:37:26.262Z,16.57
2022-12-18T14:39:59.217Z,15.47
2022-12-18T14:42:30.463Z,13.27
2022-12-18T14:45:43.131Z,10.13
2022-12-18T14:48:23.206Z,9.47
2022-12-18T14:51:02.723Z,8.77
2022-12-18T14:53:47.742Z,8.30
2022-12-18T14:56:23.822Z,9.03
2022-12-18T14:59:06.686Z,8.57
2022-12-18T15:01:51.702Z,15.67
2022-12-18T15:04:29.045Z,18.73
2022-12-18T15:07:20.643Z,20.13
2022-12-18T15:10:23.797Z,16.67
2022-12-18T15:12:57.676Z,13.67
2022-12-18T15:15:37.141Z,12.17
2022-12-18T15:18:10.350Z,11.10
2022-12-18T15:20:52.956Z,16.87
2022-12-18T15:23:45.920Z,44.20
2022-12-18T15:26:17.209Z,51.17
2022-12-18T15:28:58.174Z,36.13
2022-12-18T15:31:35.933Z,28.70
2022-12-18T15:34:20.272Z,18.73
2022-12-18T15:36:47.665Z,17.57
2022-12-18T15:39:14.994Z,18.73
2022-12-18T15:41:42.320Z,14.37
2022-12-18T15:44:25.752Z,19.30
2022-12-18T15:46:53.210Z,16.53
2022-12-18T15:49:20.500Z,17.30
2022-12-18T15:51:59.007Z,11.17
2022-12-18T15:54:26.930Z,11.93
2022-12-18T15:56:54.111Z,10.23
2022-12-18T15:59:23.538Z,11.57
2022-12-18T16:01:52.711Z,7.50
2022-12-18T16:04:22.559Z,8.80
2022-12-18T16:07:13.953Z,9.20
2022-12-18T16:09:38.844Z,10.60
2022-12-18T16:12:14.939Z,14.07
2022-12-18T16:14:42.191Z,9.67
2022-12-18T16:17:13.675Z,9.47
2022-12-18T16:19:41.130Z,11.17
2022-12-18T16:22:29.322Z,10.13
2022-12-18T16:24:58.624Z,10.40
2022-12-18T16:27:26.966Z,11.40
2022-12-18T16:29:54.199Z,15.53
2022-12-18T16:32:23.558Z,15.77
2022-12-18T16:34:51.945Z,15.67
2022-12-18T16:37:19.255Z,20.93
2022-12-18T16:39:46.601Z,29.17
2022-12-18T16:42:19.645Z,35.07
2022-12-18T16:44:50.374Z,22.63
2022-12-18T16:47:19.165Z,15.83
2022-12-18T16:53:07.277Z,17.03
2022-12-18T16:56:07.731Z,13.83
2022-12-18T16:58:55.369Z,13.20
2022-12-18T17:01:24.133Z,14.43
2022-12-18T17:04:04.205Z,13.77
2022-12-18T17:06:36.175Z,10.10
2022-12-18T17:09:13.972Z,10.67
2022-12-18T17:11:41.567Z,10.30
2022-12-18T17:14:16.149Z,15.43
2022-12-18T17:16:44.810Z,11.57
2022-12-18T17:19:23.995Z,11.27
2022-12-18T17:21:54.422Z,11.77
2022-12-18T17:24:22.715Z,11.73
2022-12-18T17:26:55.439Z,12.33
2022-12-18T17:29:23.540Z,18.80
2022-12-18T17:31:52.460Z,19.87
2022-12-18T17:34:19.804Z,18.83
2022-12-18T17:36:47.772Z,16.30
2022-12-18T17:39:20.354Z,13.63
2022-12-18T17:41:49.497Z,13.03
2022-12-18T17:44:18.139Z,12.13
2022-12-18T17:46:46.095Z,11.00
2022-12-18T17:49:14.953Z,11.23
2022-12-18T17:51:42.634Z,11.33
2022-12-18T17:54:11.553Z,12.50
2022-12-18T17:56:39.613Z,12.13
2022-12-18T17:59:07.360Z,13.37
2022-12-18T18:01:39.723Z,12.20
2022-12-18T18:04:11.489Z,9.53
2022-12-18T18:06:40.903Z,11.10
2022-12-18T18:09:15.178Z,12.07
2022-12-18T18:11:47.089Z,12.50
2022-12-18T18:14:19.325Z,13.40
2022-12-18T18:16:50.436Z,11.87
2022-12-18T18:19:21.743Z,19.10
2022-12-18T18:21:52.074Z,12.93
2022-12-18T18:24:22.972Z,10.17
2022-12-18T18:26:50.680Z,9.90
2022-12-18T18:29:26.536Z,9.23
2022-12-18T18:31:55.072Z,10.50
2022-12-18T18:34:26.213Z,11.83
2022-12-18T18:36:54.360Z,12.67
2022-12-18T18:39:21.744Z,10.77
2022-12-18T18:41:49.714Z,10.73
2022-12-18T18:44:19.587Z,10.57
2022-12-18T18:46:49.348Z,10.60
2022-12-18T18:49:16.513Z,9.47
2022-12-18T18:51:43.804Z,7.23
2022-12-18T18:54:11.089Z,7.20
2022-12-18T18:57:11.656Z,7.13
2022-12-18T18:59:31.209Z,8.30
2022-12-18T19:02:04.186Z,6.83
2022-12-18T19:04:33.866Z,7.33
2022-12-18T19:07:01.314Z,9.10
2022-12-18T19:09:29.180Z,8.97
2022-12-18T19:11:56.984Z,8.63
2022-12-18T19:14:24.656Z,9.57
2022-12-18T19:16:51.933Z,10.13
2022-12-18T19:19:20.117Z,8.67
2022-12-18T19:21:48.148Z,8.07
2022-12-18T19:24:15.372Z,8.43
2022-12-18T19:26:42.681Z,9.03
2022-12-18T19:29:12.306Z,8.30
2022-12-18T19:31:39.556Z,11.23
2022-12-18T19:34:07.825Z,12.70
2022-12-18T19:36:38.439Z,10.63
2022-12-18T19:39:16.223Z,10.60
2022-12-18T19:41:44.434Z,12.10
2022-12-18T19:44:16.082Z,11.73
2022-12-18T19:46:44.898Z,11.77
2022-12-18T19:49:17.358Z,8.03
2022-12-18T19:51:45.889Z,7.97
2022-12-18T19:54:17.057Z,8.10
2022-12-18T19:56:45.464Z,8.37
2022-12-18T19:59:12.952Z,7.83
2022-12-18T20:01:41.050Z,7.73
2022-12-18T20:04:09.108Z,6.87
2022-12-18T20:06:50.858Z,6.10
2022-12-18T20:09:19.270Z,6.43
2022-12-18T20:11:48.135Z,6.90
2022-12-18T20:14:19.652Z,6.93
2022-12-18T20:16:52.360Z,7.70
2022-12-18T20:19:20.735Z,7.80
2022-12-18T20:21:48.074Z,6.33
2022-12-18T20:24:15.251Z,6.90
2022-12-18T20:26:42.592Z,8.93
2022-12-18T20:29:10.065Z,8.60
2022-12-18T20:31:37.361Z,9.30
2022-12-18T20:34:04.964Z,9.03
2022-12-18T20:36:35.236Z,6.47
2022-12-18T20:39:09.885Z,6.83
2022-12-18T20:41:39.297Z,6.70
2022-12-18T20:44:21.737Z,6.73
2022-12-18T20:46:59.783Z,5.37
2022-12-18T20:49:27.924Z,4.63
2022-12-18T20:51:57.717Z,4.30
2022-12-18T20:54:27.504Z,5.00
2022-12-18T20:56:55.715Z,5.50
2022-12-18T20:59:23.368Z,5.50
2022-12-18T21:01:50.947Z,4.83
2022-12-18T21:04:19.521Z,4.47
2022-12-18T21:06:53.291Z,4.20
2022-12-18T21:09:25.119Z,4.43
2022-12-18T21:11:52.300Z,4.47
2022-12-18T21:14:24.348Z,4.37
2022-12-18T21:16:56.243Z,4.43
2022-12-18T21:19:25.885Z,4.77
2022-12-18T21:21:55.721Z,4.10
2022-12-18T21:24:23.923Z,4.00
2022-12-18T21:26:51.439Z,3.80
2022-12-18T21:29:23.065Z,3.67
2022-12-18T21:31:52.446Z,2.83
2022-12-18T21:34:27.859Z,3.27
2022-12-18T21:36:58.147Z,3.50
2022-12-18T21:39:28.945Z,3.20
2022-12-18T21:41:57.557Z,3.43
2022-12-18T21:44:25.029Z,3.00
2022-12-18T21:46:58.239Z,3.50
2022-12-18T21:49:28.936Z,3.70
2022-12-18T21:51:58.590Z,3.13
2022-12-18T21:54:29.026Z,3.47
2022-12-18T21:57:02.392Z,3.90
2022-12-18T21:59:38.640Z,4.97
2022-12-18T22:02:20.538Z,5.40
2022-12-18T22:04:48.780Z,4.87
2022-12-18T22:07:17.077Z,5.60
2022-12-18T22:09:44.495Z,5.73
2022-12-18T22:12:13.972Z,6.77
2022-12-18T22:14:41.176Z,5.50
2022-12-18T22:17:08.331Z,4.70
2022-12-18T22:19:39.618Z,5.10
2022-12-18T22:22:09.928Z,4.60
2022-12-18T22:24:37.178Z,3.50
2022-12-18T22:27:04.367Z,4.23
2022-12-18T22:29:31.572Z,4.07
2022-12-18T22:32:01.151Z,3.83
2022-12-18T22:34:28.832Z,4.20
2022-12-18T22:36:56.157Z,3.40
2022-12-18T22:39:28.700Z,3.90
2022-12-18T22:41:56.970Z,3.40
2022-12-18T22:44:27.446Z,3.83
2022-12-18T22:47:06.297Z,3.50
2022-12-18T22:49:35.789Z,3.40
2022-12-18T22:52:09.119Z,3.30
2022-12-18T22:54:36.459Z,2.87
2022-12-18T22:57:03.745Z,3.43
2022-12-18T22:59:31.063Z,3.20
2022-12-18T23:01:59.489Z,3.07
2022-12-18T23:04:28.113Z,3.27
2022-12-18T23:06:59.280Z,3.07
2022-12-18T23:09:26.455Z,3.20
2022-12-18T23:11:53.709Z,3.43
2022-12-18T23:14:20.901Z,3.43
2022-12-18T23:16:48.249Z,3.13
2022-12-18T23:19:17.634Z,3.43
2022-12-18T23:21:44.862Z,3.60
2022-12-18T23:24:12.041Z,3.07
2022-12-18T23:26:39.321Z,3.37
2022-12-18T23:29:07.446Z,3.23
2022-12-18T23:31:38.240Z,3.30
2022-12-18T23:34:07.146Z,3.13
2022-12-18T23:36:45.360Z,3.57
2022-12-18T23:39:22.325Z,3.47
2022-12-18T23:42:01.050Z,3.17
2022-12-18T23:44:28.310Z,3.20
2022-12-18T23:46:55.770Z,3.37
2022-12-18T23:49:23.398Z,3.27
2022-12-18T23:51:50.985Z,3.20
2022-12-18T23:54:22.671Z,3.40
2022-12-18T23:57:01.005Z,3.63
2022-12-18T23:59:28.211Z,2.80
